Time;durP1;ratioP1;P1;durP2;ratioP2;P2;SDS_P1;SDS_P2;PMS_P1;PMS_P2;Temp;Humidity;BMP_temperature;BMP_pressure;BME280_temperature;BME280_humidity;BME280_pressure;Samples;Min_cycle;Max_cycle;Signal;HPM_P1;HPM_P2
2022/04/05 00:01:07;;;;;;;18.52;9.70;;;;;;;6.50;100.00;67497.41;4998131;28;20172;-83
2022/04/05 00:03:32;;;;;;;16.63;7.57;;;;;;;6.52;100.00;67499.66;5019398;28;20125;-84
2022/04/05 00:05:58;;;;;;;16.92;9.48;;;;;;;;;;5001346;28;20041;-84
2022/04/05 00:08:23;;;;;;;19.10;8.98;;;;;;;;;;5001381;28;20042;-84
2022/04/05 00:10:48;;;;;;;13.25;7.32;;;;;;;6.51;100.00;67493.25;5000735;28;20049;-83
2022/04/05 00:13:13;;;;;;;16.48;9.68;;;;;;;;;;4996568;28;20057;-83
2022/04/05 00:15:39;;;;;;;15.98;7.75;;;;;;;6.52;100.00;67499.66;4999094;28;20793;-83
2022/04/05 00:18:04;;;;;;;16.90;7.97;;;;;;;6.49;100.00;67498.91;5001410;28;20049;-83
2022/04/05 00:20:30;;;;;;;15.90;7.82;;;;;;;;;;5003334;28;20038;-83
2022/04/05 00:23:01;;;;;;;17.05;8.18;;;;;;;6.50;100.00;67499.47;5009958;28;20582;-84
2022/04/05 00:25:26;;;;;;;16.40;7.38;;;;;;;6.50;100.00;67497.41;5003075;28;20409;-83
2022/04/05 00:27:52;;;;;;;14.68;7.63;;;;;;;;;;5019982;28;20048;-83
2022/04/05 00:30:18;;;;;;;14.68;7.78;;;;;;;6.49;100.00;67490.97;5015392;28;20052;-83
2022/04/05 00:32:44;;;;;;;13.13;6.22;;;;;;;6.52;100.00;67494.38;5017793;28;20059;-84
2022/04/05 00:35:10;;;;;;;10.25;5.28;;;;;;;6.53;100.00;67500.22;5020085;28;20634;-83
2022/04/05 00:37:36;;;;;;;14.35;8.45;;;;;;;6.52;100.00;67499.66;5005397;28;20046;-84
2022/04/05 00:40:04;;;;;;;12.63;7.22;;;;;;;6.53;100.00;67500.81;5018444;28;20052;-83
2022/04/05 00:42:30;;;;;;;14.10;7.97;;;;;;;6.52;100.00;67499.66;5015190;28;20040;-84
2022/04/05 00:44:55;;;;;;;13.35;8.07;;;;;;;;;;5020509;28;20117;-84
2022/04/05 00:47:22;;;;;;;14.93;7.32;;;;;;;6.53;100.00;67500.22;5018560;28;20172;-84
2022/04/05 00:49:50;;;;;;;11.68;6.97;;;;;;;6.50;100.00;67502.13;5020555;28;20041;-84
2022/04/05 00:52:17;;;;;;;13.70;7.45;;;;;;;6.53;100.00;67500.81;5011776;28;20046;-84
2022/04/05 00:54:46;;;;;;;12.93;7.47;;;;;;;;;;5015591;28;20068;-84
2022/04/05 00:57:16;;;;;;;14.95;8.35;;;;;;;6.51;100.00;67498.53;5022756;28;20073;-84
2022/04/05 00:59:47;;;;;;;14.82;7.55;;;;;;;6.49;100.00;67496.25;5015502;28;20034;-84
2022/04/05 01:02:25;;;;;;;13.05;7.50;;;;;;;6.49;100.00;67496.25;5013679;28;20501;-84
2022/04/05 01:04:51;;;;;;;16.05;7.25;;;;;;;6.47;100.00;67488.72;5014850;28;20401;-84
2022/04/05 01:07:19;;;;;;;12.20;7.85;;;;;;;;;;5016510;28;20049;-84
2022/04/05 01:09:45;;;;;;;17.02;7.55;;;;;;;6.46;100.00;67492.88;5016087;28;20069;-84
2022/04/05 01:12:12;;;;;;;10.07;6.03;;;;;;;6.45;100.00;67491.75;5018086;28;20452;-84
2022/04/05 01:14:38;;;;;;;11.02;6.10;;;;;;;;;;5019967;28;20045;-84
2022/04/05 01:17:03;;;;;;;9.45;6.32;;;;;;;;;;5017829;28;20120;-84
2022/04/05 01:19:31;;;;;;;11.15;5.63;;;;;;;6.43;100.00;67489.47;5015408;28;20129;-84
2022/04/05 01:21:56;;;;;;;9.55;6.00;;;;;;;6.42;100.00;67490.44;5017954;28;20061;-85
2022/04/05 01:24:22;;;;;;;10.15;6.15;;;;;;;6.41;100.00;67486.66;5017704;28;20073;-85
2022/04/05 01:26:53;;;;;;;8.55;5.18;;;;;;;6.41;100.00;67486.66;5013160;28;20103;-84
2022/04/05 01:29:21;;;;;;;8.32;5.40;;;;;;;6.37;100.00;67482.13;5014927;28;20048;-84
2022/04/05 01:31:49;;;;;;;12.65;5.53;;;;;;;6.34;100.00;67481.94;5014789;28;20037;-84
2022/04/05 01:34:17;;;;;;;9.15;6.18;;;;;;;6.33;100.00;67484.03;5015216;28;20568;-84
2022/04/05 01:36:47;;;;;;;10.27;6.72;;;;;;;;;;5016626;28;20041;-84
2022/04/05 01:39:12;;;;;;;8.75;5.75;;;;;;;;;;5031813;28;20038;-84
2022/04/05 01:41:38;;;;;;;8.65;5.88;;;;;;;;;;5019800;28;20568;-84
2022/04/05 01:44:05;;;;;;;10.05;6.03;;;;;;;;;;5018848;28;20045;-84
2022/04/05 01:46:32;;;;;;;7.40;5.50;;;;;;;6.30;100.00;67474.78;5022062;28;20037;-84
2022/04/05 01:48:58;;;;;;;10.68;5.80;;;;;;;6.30;100.00;67475.34;5017468;28;20042;-84
2022/04/05 01:51:23;;;;;;;10.38;6.40;;;;;;;6.30;100.00;67475.34;5019971;28;20044;-84
2022/04/05 01:53:49;;;;;;;8.75;5.15;;;;;;;6.30;100.00;67474.78;5012737;28;20067;-84
2022/04/05 01:56:14;;;;;;;9.55;5.32;;;;;;;6.27;100.00;67466.09;5015657;28;20045;-83
2022/04/05 01:58:40;;;;;;;8.77;4.65;;;;;;;6.25;100.00;67469.13;5020489;28;20132;-84
2022/04/05 02:01:05;;;;;;;11.48;4.13;;;;;;;6.24;100.00;67468.56;5014807;28;20073;-84
2022/04/05 02:03:31;;;;;;;9.98;4.75;;;;;;;6.25;100.00;67469.13;5014780;28;20051;-84
2022/04/05 02:05:56;;;;;;;8.77;4.53;;;;;;;6.23;100.00;67469.50;5017995;28;20044;-84
2022/04/05 02:08:22;;;;;;;7.85;3.67;;;;;;;6.23;100.00;67469.50;5021754;28;20041;-84
2022/04/05 02:10:47;;;;;;;6.55;3.90;;;;;;;6.23;100.00;67467.44;5015028;28;20038;-83
2022/04/05 02:13:12;;;;;;;9.43;3.63;;;;;;;6.23;100.00;67472.16;5019680;28;20045;-84
2022/04/05 02:15:38;;;;;;;9.30;3.70;;;;;;;6.21;100.00;67465.16;5017841;28;20041;-84
2022/04/05 02:18:03;;;;;;;8.70;4.00;;;;;;;6.20;100.00;67463.47;5014588;28;20061;-84
2022/04/05 02:20:29;;;;;;;8.48;4.15;;;;;;;;;;5016366;28;20041;-84
2022/04/05 02:22:54;;;;;;;8.57;4.03;;;;;;;6.19;100.00;67465.56;5018568;28;20052;-84
2022/04/05 02:25:19;;;;;;;8.05;4.50;;;;;;;6.18;100.00;67461.78;5022782;28;20107;-84
2022/04/05 02:27:47;;;;;;;5.55;3.05;;;;;;;6.19;100.00;67462.34;5019193;28;20065;-84
2022/04/05 02:30:12;;;;;;;8.30;4.28;;;;;;;6.17;100.00;67460.09;5018963;28;20049;-85
2022/04/05 02:32:38;;;;;;;7.45;3.50;;;;;;;6.17;100.00;67460.09;5017951;28;20096;-84
2022/04/05 02:35:04;;;;;;;8.18;3.75;;;;;;;6.17;100.00;67460.09;5016432;28;20045;-84
2022/04/05 02:37:30;;;;;;;11.23;3.42;;;;;;;6.17;100.00;67454.81;5018406;28;20754;-83
2022/04/05 02:39:55;;;;;;;7.30;4.57;;;;;;;6.16;100.00;67459.53;5019878;28;20053;-83
2022/04/05 02:42:20;;;;;;;8.50;4.07;;;;;;;6.15;100.00;67453.09;5017367;28;20729;-83
2022/04/05 02:44:46;;;;;;;9.07;4.00;;;;;;;;;;5016990;28;20072;-82
2022/04/05 02:47:12;;;;;;;5.10;2.75;;;;;;;6.13;100.00;67456.13;5018291;28;21974;-83
2022/04/05 02:49:38;;;;;;;6.88;3.08;;;;;;;6.13;100.00;67455.56;5021498;28;20045;-82
2022/04/05 02:52:04;;;;;;;6.32;3.10;;;;;;;6.14;100.00;67456.69;5022567;28;20095;-83
2022/04/05 02:54:30;;;;;;;5.50;3.88;;;;;;;6.14;100.00;67451.41;5015529;28;20358;-83
2022/04/05 02:56:55;;;;;;;6.75;4.22;;;;;;;6.12;100.00;67454.44;5020284;28;20037;-83
2022/04/05 02:59:20;;;;;;;5.90;3.53;;;;;;;6.13;100.00;67450.25;5016949;28;20680;-83
2022/04/05 03:01:46;;;;;;;7.43;3.65;;;;;;;;;;5013485;28;20037;-83
2022/04/05 03:04:12;;;;;;;7.13;4.15;;;;;;;;;;5021771;28;20100;-84
2022/04/05 03:06:37;;;;;;;7.75;3.85;;;;;;;6.09;100.00;67446.88;5020554;28;20041;-85
2022/04/05 03:09:02;;;;;;;7.72;4.85;;;;;;;6.10;100.00;67453.31;5022737;28;20033;-84
2022/04/05 03:11:28;;;;;;;8.20;4.22;;;;;;;6.10;100.00;67455.94;5024663;28;20037;-84
2022/04/05 03:13:53;;;;;;;6.95;4.32;;;;;;;6.10;100.00;67452.75;5013332;28;20499;-84
2022/04/05 03:16:19;;;;;;;6.80;3.92;;;;;;;6.12;100.00;67449.16;5019687;28;20104;-83
2022/04/05 03:18:46;;;;;;;7.18;3.92;;;;;;;;;;5016752;28;20064;-83
2022/04/05 03:21:13;;;;;;;7.18;4.00;;;;;;;6.09;100.00;67452.16;5020295;28;20274;-83
2022/04/05 03:23:38;;;;;;;8.00;4.22;;;;;;;;;;5014503;28;20034;-83
2022/04/05 03:26:04;;;;;;;10.88;5.80;;;;;;;;;;5019017;28;20487;-83
2022/04/05 03:28:29;;;;;;;11.63;5.22;;;;;;;6.13;100.00;67458.78;5024730;28;20041;-84
2022/04/05 03:30:54;;;;;;;8.60;4.55;;;;;;;6.13;100.00;67455.56;5026204;28;20049;-84
2022/04/05 03:33:19;;;;;;;7.97;3.90;;;;;;;;;;5023625;28;20061;-83
2022/04/05 03:35:45;;;;;;;10.00;4.47;;;;;;;;;;5023149;28;20424;-84
2022/04/05 03:38:10;;;;;;;10.00;4.90;;;;;;;6.10;100.00;67448.03;5015697;28;20045;-84
2022/04/05 03:40:36;;;;;;;8.60;4.32;;;;;;;6.14;100.00;67457.25;5024503;28;20050;-83
2022/04/05 03:43:01;;;;;;;10.02;5.47;;;;;;;6.11;100.00;67453.88;5012798;28;20096;-83
2022/04/05 03:45:27;;;;;;;9.00;4.35;;;;;;;;;;5005315;28;20057;-83
2022/04/05 03:47:52;;;;;;;10.38;4.90;;;;;;;6.12;100.00;67454.44;5007769;28;20049;-83
2022/04/05 03:50:18;;;;;;;7.63;4.25;;;;;;;;;;5004161;28;20051;-84
2022/04/05 03:52:43;;;;;;;11.15;5.07;;;;;;;6.11;100.00;67453.88;5002809;28;20091;-84
2022/04/05 03:55:09;;;;;;;9.43;4.70;;;;;;;6.11;100.00;67453.88;5003316;28;20049;-84
2022/04/05 03:57:34;;;;;;;10.95;4.80;;;;;;;6.10;100.00;67448.03;4998942;28;20042;-83
2022/04/05 03:59:59;;;;;;;11.15;5.85;;;;;;;6.12;100.00;67454.44;4998272;28;20042;-84
2022/04/05 04:02:25;;;;;;;9.65;6.07;;;;;;;6.11;100.00;67453.88;4997218;28;20129;-84
2022/04/05 04:04:50;;;;;;;9.63;5.43;;;;;;;6.13;100.00;67455.56;4999263;28;20133;-84
2022/04/05 04:07:15;;;;;;;11.52;6.60;;;;;;;;;;5004039;28;20030;-83
2022/04/05 04:09:41;;;;;;;10.80;5.20;;;;;;;;;;5003979;28;20053;-83
2022/04/05 04:12:06;;;;;;;12.20;5.40;;;;;;;6.10;100.00;67452.75;5000196;28;20402;-84
2022/04/05 04:14:33;;;;;;;12.55;5.53;;;;;;;6.10;100.00;67453.31;4995160;28;20050;-84
2022/04/05 04:16:58;;;;;;;12.15;5.95;;;;;;;;;;4996971;28;20030;-84
2022/04/05 04:19:24;;;;;;;9.00;5.22;;;;;;;6.09;100.00;67451.59;4999606;28;20040;-85
2022/04/05 04:21:49;;;;;;;9.52;5.68;;;;;;;6.09;100.00;67451.59;4999440;28;29052;-84
2022/04/05 04:24:14;;;;;;;11.45;6.20;;;;;;;6.07;100.00;67452.56;5013345;28;20048;-85
2022/04/05 04:26:40;;;;;;;10.32;5.43;;;;;;;6.11;100.00;67453.88;5019172;28;20484;-85
2022/04/05 04:29:05;;;;;;;9.25;4.47;;;;;;;6.12;100.00;67454.44;5022382;28;20041;-85
2022/04/05 04:31:31;;;;;;;8.70;5.15;;;;;;;6.10;100.00;67455.38;5016765;28;20037;-85
2022/04/05 04:33:57;;;;;;;10.25;5.10;;;;;;;;;;5021186;28;20195;-85
2022/04/05 04:36:22;;;;;;;11.15;5.75;;;;;;;;;;5023904;28;20038;-85
2022/04/05 04:38:49;;;;;;;14.27;5.72;;;;;;;6.12;100.00;67454.44;5018106;28;20148;-85
2022/04/05 04:41:14;;;;;;;12.73;5.97;;;;;;;6.11;100.00;67448.59;5014782;28;20144;-85
2022/04/05 04:43:39;;;;;;;10.88;5.45;;;;;;;6.11;100.00;67453.88;5018793;28;20120;-84
2022/04/05 04:46:05;;;;;;;11.45;5.35;;;;;;;6.14;100.00;67456.69;5033758;28;20041;-84
2022/04/05 04:48:30;;;;;;;10.30;5.10;;;;;;;6.15;100.00;67460.47;5047086;28;20045;-85
2022/04/05 04:50:56;;;;;;;12.10;7.00;;;;;;;;;;5023493;28;20061;-85
2022/04/05 04:53:21;;;;;;;9.05;4.70;;;;;;;;;;5017599;28;20054;-84
2022/04/05 04:55:46;;;;;;;9.95;5.75;;;;;;;6.14;100.00;67456.69;5017435;28;20664;-84
2022/04/05 04:58:13;;;;;;;12.13;6.63;;;;;;;6.14;100.00;67457.25;5001445;28;20046;-85
2022/04/05 05:00:39;;;;;;;13.15;6.40;;;;;;;6.15;100.00;67458.38;5002115;28;20046;-84
2022/04/05 05:03:04;;;;;;;10.55;6.28;;;;;;;6.16;100.00;67458.94;4994653;28;20097;-84
2022/04/05 05:05:29;;;;;;;12.30;6.55;;;;;;;6.16;100.00;67459.53;4998018;28;20050;-84
2022/04/05 05:07:55;;;;;;;14.88;8.05;;;;;;;;;;4998543;28;20115;-84
2022/04/05 05:10:21;;;;;;;12.93;7.50;;;;;;;6.17;100.00;67460.09;4998023;28;20661;-84
2022/04/05 05:12:47;;;;;;;13.98;9.20;;;;;;;6.17;100.00;67460.09;5000733;28;20065;-85
2022/04/05 05:15:15;;;;;;;12.63;7.13;;;;;;;;;;5002006;28;20727;-85
2022/04/05 05:17:41;;;;;;;10.07;6.25;;;;;;;6.16;100.00;67459.53;4994259;28;20524;-85
2022/04/05 05:20:08;;;;;;;12.07;5.82;;;;;;;6.16;100.00;67453.66;5001382;28;20603;-85
2022/04/05 05:22:34;;;;;;;11.90;6.28;;;;;;;6.17;100.00;67460.09;4994449;28;20045;-84
2022/04/05 05:24:59;;;;;;;9.13;5.38;;;;;;;;;;5002201;28;20046;-85
2022/04/05 05:27:24;;;;;;;12.05;6.32;;;;;;;;;;5000326;28;20787;-84
2022/04/05 05:29:49;;;;;;;12.63;7.72;;;;;;;;;;5000429;28;20066;-84
2022/04/05 05:32:15;;;;;;;11.50;7.07;;;;;;;6.17;100.00;67462.72;4996923;28;20438;-84
2022/04/05 05:34:40;;;;;;;10.40;5.20;;;;;;;6.17;100.00;67460.66;4997485;28;20045;-83
2022/04/05 05:37:05;;;;;;;10.77;7.43;;;;;;;6.19;100.00;67457.63;5003263;28;20038;-83
2022/04/05 05:39:32;;;;;;;13.63;6.18;;;;;;;6.18;100.00;67461.22;5005104;28;20095;-83
2022/04/05 05:41:58;;;;;;;9.95;6.25;;;;;;;;;;5000200;28;20045;-83
2022/04/05 05:44:24;;;;;;;12.32;6.85;;;;;;;6.19;100.00;67462.34;5000864;28;20038;-83
2022/04/05 05:46:50;;;;;;;11.20;6.78;;;;;;;6.20;100.00;67458.19;4998934;28;20108;-83
2022/04/05 05:49:15;;;;;;;11.85;7.55;;;;;;;6.20;100.00;67463.47;5003976;28;20042;-83
2022/04/05 05:51:40;;;;;;;10.40;6.43;;;;;;;6.20;100.00;67464.03;5015455;28;20125;-83
2022/04/05 05:54:06;;;;;;;11.82;6.10;;;;;;;6.22;100.00;67471.03;4999795;28;20057;-83
2022/04/05 05:56:32;;;;;;;15.00;6.72;;;;;;;6.22;100.00;67465.75;4997344;28;20046;-83
2022/04/05 05:58:57;;;;;;;17.02;9.25;;;;;;;;;;5000882;28;20042;-83
2022/04/05 06:01:23;;;;;;;15.73;9.27;;;;;;;;;;4997636;28;20042;-83
2022/04/05 06:03:48;;;;;;;13.48;7.32;;;;;;;;;;4995788;28;20042;-83
2022/04/05 06:06:13;;;;;;;14.68;7.65;;;;;;;6.24;100.00;67468.00;4997865;28;20124;-83
2022/04/05 06:08:39;;;;;;;14.02;8.75;;;;;;;6.25;100.00;67463.84;4998731;28;20061;-83
2022/04/05 06:11:07;;;;;;;18.20;10.23;;;;;;;6.23;100.00;67469.50;5000800;28;20619;-83
2022/04/05 06:13:32;;;;;;;15.75;8.52;;;;;;;6.24;100.00;67471.22;5003671;28;20053;-83
2022/04/05 06:15:58;;;;;;;14.63;8.35;;;;;;;;;;5007847;28;20443;-83
2022/04/05 06:18:23;;;;;;;18.00;8.85;;;;;;;;;;5010053;28;20064;-83
2022/04/05 06:20:48;;;;;;;19.05;9.93;;;;;;;;;;5003553;28;20856;-83
2022/04/05 06:23:13;;;;;;;19.08;10.40;;;;;;;6.27;100.00;67474.59;5015206;28;20038;-83
2022/04/05 06:25:39;;;;;;;19.20;9.52;;;;;;;;;;5017095;28;20029;-83
2022/04/05 06:28:07;;;;;;;18.98;10.38;;;;;;;6.29;100.00;67474.22;5016669;28;20073;-83
2022/04/05 06:30:34;;;;;;;19.55;10.35;;;;;;;6.30;100.00;67475.34;5020960;28;20132;-83
2022/04/05 06:33:09;;;;;;;19.25;11.80;;;;;;;6.29;100.00;67474.22;5016438;28;20132;-83
2022/04/05 06:35:39;;;;;;;23.65;12.85;;;;;;;6.36;100.00;67481.56;5018761;28;20042;-83
2022/04/05 06:38:04;;;;;;;20.95;9.05;;;;;;;;;;5017755;28;20087;-83
2022/04/05 06:40:30;;;;;;;21.30;11.05;;;;;;;6.35;100.00;67480.44;5025128;28;20409;-83
2022/04/05 06:42:56;;;;;;;22.88;13.35;;;;;;;6.37;100.00;67482.69;5018779;28;20065;-83
2022/04/05 06:45:22;;;;;;;18.75;9.77;;;;;;;;;;5014980;28;20124;-82
2022/04/05 06:47:48;;;;;;;18.55;10.10;;;;;;;;;;5017245;28;20589;-82
2022/04/05 06:50:16;;;;;;;18.85;10.88;;;;;;;6.41;100.00;67486.66;5022217;28;20133;-83
2022/04/05 06:52:42;;;;;;;19.40;10.60;;;;;;;6.42;100.00;67483.06;5024467;28;20037;-82
2022/04/05 06:55:08;;;;;;;19.85;10.30;;;;;;;;;;5016510;28;20040;-83
2022/04/05 06:57:34;;;;;;;25.17;11.70;;;;;;;6.46;100.00;67492.88;5019116;28;20041;-83
2022/04/05 06:59:59;;;;;;;15.93;8.90;;;;;;;6.48;100.00;67495.13;5019309;28;20512;-82
2022/04/05 07:02:24;;;;;;;16.50;8.80;;;;;;;6.49;100.00;67496.25;5021091;28;20061;-84
2022/04/05 07:04:50;;;;;;;17.70;7.22;;;;;;;6.51;100.00;67498.53;5019386;28;20505;-84
2022/04/05 07:07:15;;;;;;;12.88;7.32;;;;;;;6.50;100.00;67492.13;5015154;28;20095;-84
2022/04/05 07:09:41;;;;;;;18.88;10.52;;;;;;;6.52;100.00;67499.09;5017800;28;20085;-82
2022/04/05 07:12:07;;;;;;;14.05;7.40;;;;;;;6.55;100.00;67502.47;5017072;28;20533;-84
2022/04/05 07:14:33;;;;;;;16.40;7.57;;;;;;;6.57;100.00;67498.91;5021953;28;20041;-84
2022/04/05 07:16:59;;;;;;;12.85;6.70;;;;;;;;;;5018567;28;20413;-84
2022/04/05 07:19:24;;;;;;;15.35;8.45;;;;;;;;;;5013622;28;20077;-84
2022/04/05 07:21:50;;;;;;;18.73;9.80;;;;;;;;;;5018121;28;20046;-84
2022/04/05 07:24:15;;;;;;;10.80;5.00;;;;;;;6.63;100.00;67510.97;5014394;28;20046;-85
2022/04/05 07:26:41;;;;;;;12.02;5.68;;;;;;;6.66;100.00;67514.38;5012893;28;20053;-84
2022/04/05 07:29:06;;;;;;;10.05;5.10;;;;;;;6.64;100.00;67512.09;5016876;28;20103;-84
2022/04/05 07:31:31;;;;;;;12.05;6.30;;;;;;;6.71;100.00;67520.59;5016298;28;20045;-84
2022/04/05 07:33:57;;;;;;;10.88;6.15;;;;;;;6.69;100.00;67518.31;5017390;28;20120;-84
2022/04/05 07:36:22;;;;;;;11.48;7.28;;;;;;;6.73;100.00;67522.84;5015637;28;20045;-84
2022/04/05 07:38:48;;;;;;;10.35;5.03;;;;;;;6.79;100.00;67531.72;5017313;28;20026;-84
2022/04/05 07:41:13;;;;;;;9.65;5.47;;;;;;;6.72;100.00;67521.16;5022176;28;20045;-84
2022/04/05 07:43:38;;;;;;;10.15;6.50;;;;;;;6.76;100.00;67520.38;5015927;28;20045;-84
2022/04/05 07:46:04;;;;;;;11.93;6.60;;;;;;;6.85;100.00;67527.34;5018890;28;20099;-84
2022/04/05 07:48:30;;;;;;;7.53;4.22;;;;;;;6.83;100.00;67533.59;5020704;28;20033;-84
2022/04/05 07:50:56;;;;;;;6.85;3.83;;;;;;;6.80;100.00;67530.19;5014842;28;20484;-84
2022/04/05 07:53:21;;;;;;;6.70;3.40;;;;;;;;;;5033863;28;20062;-84
2022/04/05 07:55:46;;;;;;;10.65;5.53;;;;;;;6.80;100.00;67529.63;5021915;28;20049;-84
2022/04/05 07:58:12;;;;;;;11.13;7.00;;;;;;;6.80;100.00;67524.91;5025334;28;20141;-84
2022/04/05 08:00:37;;;;;;;9.75;5.28;;;;;;;6.83;100.00;67533.59;5015198;28;20117;-84
2022/04/05 08:03:03;;;;;;;6.32;4.13;;;;;;;6.82;100.00;67537.19;5018072;28;20038;-84
2022/04/05 08:05:29;;;;;;;5.78;2.80;;;;;;;;;;5016124;28;20497;-84
2022/04/05 08:07:54;;;;;;;7.53;5.47;;;;;;;6.85;100.00;67535.88;5018610;28;20056;-84
2022/04/05 08:10:20;;;;;;;9.18;5.30;;;;;;;6.88;100.00;67539.25;5021894;28;20037;-84
2022/04/05 08:12:47;;;;;;;6.93;3.60;;;;;;;;;;5019443;28;20405;-84
2022/04/05 08:15:13;;;;;;;7.82;5.15;;;;;;;;;;5046891;28;20046;-84
2022/04/05 08:17:39;;;;;;;10.25;6.47;;;;;;;6.93;100.00;67544.91;5031745;28;20042;-84
2022/04/05 08:20:05;;;;;;;8.85;5.60;;;;;;;7.01;100.00;67548.09;5026245;28;20382;-84
2022/04/05 08:22:30;;;;;;;12.45;6.82;;;;;;;;;;5017789;28;20034;-84
2022/04/05 08:24:56;;;;;;;12.88;8.43;;;;;;;;;;5019233;28;20045;-84
2022/04/05 08:27:21;;;;;;;16.38;10.00;;;;;;;7.13;100.00;67561.09;5023292;28;20444;-84
2022/04/05 08:29:46;;;;;;;14.90;8.55;;;;;;;;;;5020561;28;20109;-84
2022/04/05 08:32:11;;;;;;;15.25;10.40;;;;;;;;;;5016277;28;20108;-84
2022/04/05 08:34:41;;;;;;;16.35;9.10;;;;;;;7.21;100.00;67570.16;5036678;28;20523;-84
2022/04/05 08:37:08;;;;;;;;;;;;;;;7.19;100.00;67568.47;5019712;28;20448;-83
2022/04/05 08:39:34;;;;;;;19.45;11.85;;;;;;;7.14;100.00;67568.09;5021067;28;19917;-83
2022/04/05 08:41:59;;;;;;;15.55;9.15;;;;;;;;;;5027051;28;20053;-83
2022/04/05 08:44:24;;;;;;;21.23;11.85;;;;;;;;;;5022696;28;20144;-84
2022/04/05 08:46:51;;;;;;;24.80;14.80;;;;;;;7.21;100.00;67570.16;5018186;28;20563;-83
2022/04/05 08:49:17;;;;;;;25.85;13.95;;;;;;;;;;5018383;28;20096;-83
2022/04/05 08:51:42;;;;;;;24.88;12.93;;;;;;;;;;5023973;28;20049;-83
2022/04/05 08:54:08;;;;;;;26.05;13.70;;;;;;;7.34;100.00;67584.88;5023817;28;20493;-83
2022/04/05 08:56:34;;;;;;;28.55;15.27;;;;;;;7.39;100.00;67595.84;5023722;28;20032;-83
2022/04/05 08:58:59;;;;;;;34.72;18.90;;;;;;;;;;5014430;28;20509;-83
2022/04/05 09:01:29;;;;;;;38.47;20.17;;;;;;;;;;5008665;28;20056;-84
2022/04/05 09:03:54;;;;;;;34.00;17.48;;;;;;;7.52;100.00;67609.41;5018397;28;20034;-84
2022/04/05 09:06:27;;;;;;;37.13;16.40;;;;;;;7.55;100.00;67613.38;5022694;28;20408;-84
2022/04/05 09:09:08;;;;;;;39.13;17.88;;;;;;;;;;5022663;28;20045;-84
2022/04/05 09:11:33;;;;;;;39.60;19.58;;;;;;;;;;5023623;28;20057;-84
2022/04/05 09:14:00;;;;;;;34.70;15.98;;;;;;;7.80;100.00;67641.13;5032795;28;20409;-83
2022/04/05 09:16:31;;;;;;;39.78;16.02;;;;;;;7.85;100.00;67641.47;5027914;28;20049;-83
2022/04/05 09:18:57;;;;;;;38.67;18.73;;;;;;;;;;5019593;28;20037;-83
2022/04/05 09:21:22;;;;;;;38.83;16.92;;;;;;;;;;5028691;28;20055;-84
2022/04/05 09:23:52;;;;;;;46.90;19.35;;;;;;;;;;5027064;28;20048;-84
2022/04/05 09:26:18;;;;;;;46.13;21.67;;;;;;;8.17;100.00;67681.88;5030931;28;20060;-84
2022/04/05 09:28:50;;;;;;;44.83;21.25;;;;;;;;;;5026442;28;20069;-83
2022/04/05 09:31:20;;;;;;;40.90;19.17;;;;;;;;;;5016480;28;20125;-84
2022/04/05 09:34:08;;;;;;;49.75;26.38;;;;;;;8.39;100.00;67700.38;5016928;28;20078;-84
2022/04/05 09:36:34;;;;;;;43.03;19.90;;;;;;;;;;5019254;28;20153;-84
2022/04/05 09:39:21;;;;;;;52.97;23.63;;;;;;;8.62;100.00;67726.41;5026927;28;20080;-83
2022/04/05 09:41:49;;;;;;;40.05;18.02;;;;;;;8.72;100.00;67735.09;5023503;28;20040;-84
2022/04/05 09:44:35;;;;;;;46.78;21.85;;;;;;;-145.70;100.00;64261.84;5024341;28;20072;-83
2022/04/05 09:47:17;;;;;;;38.85;19.23;;;;;;;-145.70;100.00;64261.84;5023251;28;20060;-84
2022/04/05 09:49:44;;;;;;;37.97;17.58;;;;;;;-145.70;100.00;64261.84;5022967;28;20124;-84
2022/04/05 09:52:30;;;;;;;35.78;15.70;;;;;;;-145.70;100.00;64261.84;5016656;28;20541;-84
2022/04/05 09:55:07;;;;;;;32.25;15.68;;;;;;;-145.70;100.00;64261.84;5024112;28;20037;-84
2022/04/05 09:57:33;;;;;;;30.73;17.10;;;;;;;-145.70;100.00;64261.84;5020587;28;20396;-84
2022/04/05 10:00:17;;;;;;;30.02;13.55;;;;;;;-145.70;100.00;64261.84;5014227;28;20033;-83
2022/04/05 10:03:10;;;;;;;32.08;15.68;;;;;;;-145.70;100.00;64261.84;5003217;28;20499;-84
2022/04/05 10:05:37;;;;;;;26.90;15.23;;;;;;;-145.70;100.00;64261.84;4995353;28;20099;-84
2022/04/05 10:08:04;;;;;;;26.92;13.60;;;;;;;-145.70;100.00;64261.84;5008278;28;20030;-84
2022/04/05 10:10:30;;;;;;;21.33;14.27;;;;;;;-145.70;100.00;64261.84;5021169;28;20062;-84
2022/04/05 10:12:55;;;;;;;19.83;12.13;;;;;;;-145.70;100.00;64261.84;5015333;28;20069;-84
2022/04/05 10:15:21;;;;;;;22.00;12.85;;;;;;;-145.70;100.00;64261.84;5013016;28;20054;-83
2022/04/05 10:17:48;;;;;;;18.15;10.40;;;;;;;-145.70;100.00;64261.84;5004815;28;20045;-84
2022/04/05 10:20:16;;;;;;;19.00;10.43;;;;;;;-145.70;100.00;64261.84;5014229;28;20052;-83
2022/04/05 10:22:42;;;;;;;17.00;9.70;;;;;;;-145.70;100.00;64261.84;5018172;28;20050;-84
2022/04/05 10:25:09;;;;;;;19.08;12.60;;;;;;;-145.70;100.00;64261.84;5004137;28;20117;-85
2022/04/05 10:27:36;;;;;;;15.95;12.38;;;;;;;-145.70;100.00;64261.84;5010694;28;20053;-84
2022/04/05 10:30:18;;;;;;;15.05;11.70;;;;;;;-145.70;100.00;64261.84;4996601;28;20104;-84
2022/04/05 10:32:58;;;;;;;13.00;9.05;;;;;;;-145.70;100.00;64261.84;4997889;28;20137;-84
2022/04/05 10:35:25;;;;;;;13.98;7.45;;;;;;;-145.70;100.00;64261.84;4993939;28;20522;-84
2022/04/05 10:37:53;;;;;;;13.68;8.05;;;;;;;-145.70;100.00;64261.84;5001869;28;20038;-84
2022/04/05 10:40:20;;;;;;;11.38;7.95;;;;;;;-145.70;100.00;64261.84;4993167;28;20030;-84
2022/04/05 10:42:52;;;;;;;13.18;8.43;;;;;;;-145.70;100.00;64261.84;4992655;28;20125;-84
2022/04/05 10:45:18;;;;;;;15.80;8.27;;;;;;;-145.70;100.00;64261.84;4997761;28;20038;-84
2022/04/05 10:48:14;;;;;;;12.70;7.10;;;;;;;-145.70;100.00;64261.84;4995607;28;20057;-84
2022/04/05 10:50:42;;;;;;;10.43;7.35;;;;;;;-145.70;100.00;64261.84;5006472;28;20087;-84
2022/04/05 10:53:32;;;;;;;9.23;6.60;;;;;;;-145.70;100.00;64261.84;5011258;28;20120;-84
2022/04/05 10:56:03;;;;;;;11.55;7.75;;;;;;;-145.70;100.00;64261.84;5001087;28;20080;-84
2022/04/05 10:58:29;;;;;;;13.10;8.43;;;;;;;-145.70;100.00;64261.84;5005436;28;20035;-84
2022/04/05 11:01:13;;;;;;;14.23;9.45;;;;;;;-145.70;100.00;64261.84;5018574;28;20042;-84
2022/04/05 11:03:38;;;;;;;12.27;9.15;;;;;;;-145.70;100.00;64261.84;5007278;28;20034;-84
2022/04/05 11:06:04;;;;;;;12.15;8.70;;;;;;;-145.70;100.00;64261.84;5016662;28;20394;-84
2022/04/05 11:08:31;;;;;;;14.48;8.07;;;;;;;-145.70;100.00;64261.84;5017387;28;20033;-82
2022/04/05 11:11:01;;;;;;;11.98;8.05;;;;;;;-145.70;100.00;64261.84;5017860;28;20049;-82
2022/04/05 11:13:32;;;;;;;13.88;8.35;;;;;;;-145.70;100.00;64261.84;5033188;28;20659;-83
2022/04/05 11:15:58;;;;;;;14.15;9.90;;;;;;;-145.70;100.00;64261.84;5014757;28;20064;-83
2022/04/05 11:18:30;;;;;;;17.17;10.40;;;;;;;-145.70;100.00;64261.84;5018028;28;20143;-83
2022/04/05 11:20:57;;;;;;;13.60;9.65;;;;;;;-145.70;100.00;64261.84;5018721;28;20037;-82
2022/04/05 11:23:46;;;;;;;11.57;8.25;;;;;;;-145.70;100.00;64261.84;5005377;28;20045;-83
2022/04/05 11:26:21;;;;;;;;;;;;;;;-145.70;100.00;64261.84;5002700;28;20049;-83
2022/04/05 11:28:47;;;;;;;8.32;5.78;;;;;;;-145.70;100.00;64261.84;4997860;28;19917;-83
2022/04/05 11:31:27;;;;;;;12.98;7.30;;;;;;;-145.70;100.00;64261.84;5018309;28;20125;-83
2022/04/05 11:33:53;;;;;;;8.93;6.28;;;;;;;-145.70;100.00;64261.84;5001846;28;20034;-82
2022/04/05 11:36:22;;;;;;;9.75;6.70;;;;;;;-145.70;100.00;64261.84;5036168;28;20050;-83
2022/04/05 11:38:57;;;;;;;10.25;6.70;;;;;;;-145.70;100.00;64261.84;5023773;28;20519;-83
2022/04/05 11:41:28;;;;;;;9.07;5.53;;;;;;;-145.70;100.00;64261.84;5025058;28;20042;-83
2022/04/05 11:43:59;;;;;;;8.18;6.13;;;;;;;-145.70;100.00;64261.84;5019296;28;20034;-83
2022/04/05 11:46:30;;;;;;;10.57;6.05;;;;;;;-145.70;100.00;64261.84;5017603;28;20042;-83
2022/04/05 11:49:02;;;;;;;10.45;7.55;;;;;;;-145.70;100.00;64261.84;5025907;28;20037;-83
2022/04/05 11:51:32;;;;;;;8.57;6.63;;;;;;;-145.70;100.00;64261.84;5030305;28;20493;-83
2022/04/05 11:54:17;;;;;;;8.05;6.13;;;;;;;-145.70;100.00;64261.84;5022232;28;20128;-83
2022/04/05 11:56:43;;;;;;;9.35;7.28;;;;;;;-145.70;100.00;64261.84;5032108;28;20087;-83
2022/04/05 11:59:13;;;;;;;11.38;8.05;;;;;;;-145.70;100.00;64261.84;5024012;28;20046;-83
2022/04/05 12:01:42;;;;;;;11.15;7.78;;;;;;;-145.70;100.00;64261.84;5030103;28;20041;-83